createdAt,value
2023-08-17T00:00:16.354Z,5.30
2023-08-17T00:02:43.010Z,5.00
2023-08-17T00:05:10.149Z,6.10
2023-08-17T00:07:36.922Z,6.40
2023-08-17T00:10:04.112Z,6.38
2023-08-17T00:12:30.778Z,7.90
2023-08-17T00:14:57.432Z,6.10
2023-08-17T00:17:24.431Z,6.47
2023-08-17T00:19:51.394Z,5.25
2023-08-17T00:22:18.141Z,5.35
2023-08-17T00:24:46.234Z,5.70
2023-08-17T00:27:12.881Z,6.00
2023-08-17T00:29:39.824Z,6.88
2023-08-17T00:32:06.765Z,5.50
2023-08-17T00:34:33.410Z,5.40
2023-08-17T00:37:00.188Z,6.05
2023-08-17T00:39:26.880Z,5.63
2023-08-17T00:41:53.625Z,6.10
2023-08-17T00:44:20.555Z,8.45
2023-08-17T00:46:47.254Z,8.60
2023-08-17T00:49:13.950Z,6.40
2023-08-17T00:51:40.736Z,6.40
2023-08-17T00:54:07.417Z,5.13
2023-08-17T00:56:34.046Z,10.07
2023-08-17T00:59:00.694Z,7.72
2023-08-17T01:01:27.424Z,10.27
2023-08-17T01:03:54.106Z,6.65
2023-08-17T01:06:21.029Z,6.18
2023-08-17T01:08:47.798Z,6.70
2023-08-17T01:11:21.279Z,6.55
2023-08-17T01:13:56.660Z,6.47
2023-08-17T01:16:27.589Z,7.10
2023-08-17T01:18:54.243Z,6.43
2023-08-17T01:21:23.280Z,7.70
2023-08-17T01:23:50.296Z,6.70
2023-08-17T01:26:16.962Z,6.32
2023-08-17T01:28:47.047Z,6.43
2023-08-17T01:31:18.450Z,5.72
2023-08-17T01:33:51.352Z,6.03
2023-08-17T01:36:23.722Z,6.47
2023-08-17T01:38:51.424Z,5.20
2023-08-17T01:41:18.270Z,6.10
2023-08-17T01:43:48.936Z,5.90
2023-08-17T01:46:18.955Z,5.85
2023-08-17T01:48:46.084Z,6.88
2023-08-17T01:51:17.539Z,6.25
2023-08-17T01:53:44.233Z,6.38
2023-08-17T01:56:11.159Z,6.18
2023-08-17T01:58:37.918Z,6.38
2023-08-17T02:01:04.678Z,5.72
2023-08-17T02:03:31.450Z,6.85
2023-08-17T02:05:58.269Z,6.40
2023-08-17T02:08:24.996Z,6.63
2023-08-17T02:10:51.698Z,6.20
2023-08-17T02:13:19.841Z,6.68
2023-08-17T02:15:47.686Z,7.95
2023-08-17T02:18:14.338Z,6.72
2023-08-17T02:20:41.069Z,6.93
2023-08-17T02:23:07.734Z,6.82
2023-08-17T02:25:37.187Z,7.43
2023-08-17T02:28:04.823Z,7.70
2023-08-17T02:30:31.624Z,6.90
2023-08-17T02:32:58.857Z,7.82
2023-08-17T02:35:25.659Z,7.68
2023-08-17T02:37:52.492Z,8.25
2023-08-17T02:40:19.214Z,6.80
2023-08-17T02:42:45.918Z,7.75
2023-08-17T02:45:12.651Z,8.35
2023-08-17T02:47:39.501Z,7.80
2023-08-17T02:50:07.054Z,8.70
2023-08-17T02:52:33.712Z,8.63
2023-08-17T02:55:00.354Z,7.95
2023-08-17T02:57:27.304Z,8.95
2023-08-17T02:59:54.141Z,7.97
2023-08-17T03:02:20.893Z,7.72
2023-08-17T03:04:47.659Z,8.10
2023-08-17T03:07:14.358Z,7.80
2023-08-17T03:09:40.996Z,7.22
2023-08-17T03:12:08.092Z,7.15
2023-08-17T03:14:34.986Z,7.38
2023-08-17T03:17:01.641Z,9.43
2023-08-17T03:19:28.325Z,9.75
2023-08-17T03:21:55.010Z,8.70
2023-08-17T03:24:21.665Z,8.25
2023-08-17T03:26:48.350Z,8.13
2023-08-17T03:29:15.163Z,10.80
2023-08-17T03:31:41.853Z,9.77
2023-08-17T03:34:08.585Z,11.23
2023-08-17T03:36:35.261Z,10.77
2023-08-17T03:39:01.879Z,9.43
2023-08-17T03:41:28.539Z,8.45
2023-08-17T03:43:55.252Z,8.05
2023-08-17T03:46:21.948Z,10.30
2023-08-17T03:48:48.758Z,13.20
2023-08-17T03:51:15.470Z,11.23
2023-08-17T03:53:42.145Z,11.25
2023-08-17T03:56:08.811Z,13.82
2023-08-17T03:58:36.223Z,9.25
2023-08-17T04:01:04.341Z,9.93
2023-08-17T04:03:31.093Z,8.90
2023-08-17T04:05:57.797Z,9.48
2023-08-17T04:08:24.565Z,9.00
2023-08-17T04:10:51.377Z,10.85
2023-08-17T04:13:18.038Z,8.35
2023-08-17T04:15:44.757Z,8.18
2023-08-17T04:18:11.495Z,9.13
2023-08-17T04:20:38.168Z,8.48
2023-08-17T04:23:04.890Z,8.38
2023-08-17T04:25:31.579Z,14.25
2023-08-17T04:27:58.236Z,9.85
2023-08-17T04:30:24.980Z,12.50
2023-08-17T04:32:53.911Z,10.65
2023-08-17T04:35:21.371Z,11.77
2023-08-17T04:37:50.843Z,9.40
2023-08-17T04:40:17.704Z,8.38
2023-08-17T04:42:44.424Z,8.23
2023-08-17T04:45:11.207Z,8.50
2023-08-17T04:47:38.165Z,8.40
2023-08-17T04:50:05.253Z,8.20
2023-08-17T04:52:31.966Z,8.85
2023-08-17T04:54:58.606Z,8.27
2023-08-17T04:57:25.847Z,8.73
2023-08-17T04:59:52.826Z,8.13
2023-08-17T05:02:19.498Z,8.38
2023-08-17T05:04:47.458Z,8.10
2023-08-17T05:07:14.285Z,7.65
2023-08-17T05:09:40.944Z,7.07
2023-08-17T05:12:08.126Z,9.60
2023-08-17T05:14:35.465Z,10.07
2023-08-17T05:17:02.392Z,8.50
2023-08-17T05:19:29.015Z,8.50
2023-08-17T05:21:55.685Z,7.68
2023-08-17T05:24:22.556Z,8.25
2023-08-17T05:26:49.293Z,9.10
2023-08-17T05:29:16.039Z,8.63
2023-08-17T05:31:42.751Z,8.52
2023-08-17T05:34:09.390Z,7.85
2023-08-17T05:36:36.048Z,8.68
2023-08-17T05:39:02.743Z,8.48
2023-08-17T05:41:29.388Z,7.22
2023-08-17T05:43:56.456Z,7.38
2023-08-17T05:46:23.302Z,6.97
2023-08-17T05:48:50.156Z,7.95
2023-08-17T05:51:16.908Z,7.35
2023-08-17T05:53:43.566Z,7.00
2023-08-17T05:56:10.266Z,7.32
2023-08-17T05:58:36.906Z,6.60
2023-08-17T06:01:10.307Z,5.38
2023-08-17T06:03:38.512Z,7.10
2023-08-17T06:06:06.642Z,11.23
2023-08-17T06:08:33.942Z,12.38
2023-08-17T06:11:00.720Z,9.80
2023-08-17T06:13:27.425Z,8.05
2023-08-17T06:15:55.362Z,7.07
2023-08-17T06:18:23.161Z,5.05
2023-08-17T06:20:53.367Z,3.40
2023-08-17T06:23:20.932Z,4.10
2023-08-17T06:25:47.764Z,3.75
2023-08-17T06:28:14.464Z,3.70
2023-08-17T06:30:41.168Z,3.83
2023-08-17T06:33:07.947Z,3.70
2023-08-17T06:35:34.654Z,3.72
2023-08-17T06:38:01.349Z,3.90
2023-08-17T06:40:28.497Z,3.85
2023-08-17T06:42:55.588Z,3.95
2023-08-17T06:45:23.838Z,3.80
2023-08-17T06:47:50.923Z,3.65
2023-08-17T06:50:17.703Z,4.00
2023-08-17T06:52:44.587Z,4.32
2023-08-17T06:55:14.088Z,4.00
2023-08-17T06:57:40.771Z,4.10
2023-08-17T07:00:08.580Z,4.20
2023-08-17T07:02:50.587Z,4.90
2023-08-17T07:05:22.161Z,4.78
2023-08-17T07:07:49.331Z,4.43
2023-08-17T07:10:16.126Z,4.97
2023-08-17T07:12:43.159Z,4.53
2023-08-17T07:15:10.160Z,4.80
2023-08-17T07:17:38.608Z,5.10
2023-08-17T07:20:16.570Z,5.25
2023-08-17T07:22:47.637Z,5.57
2023-08-17T07:25:14.573Z,5.68
2023-08-17T07:27:41.855Z,5.40
2023-08-17T07:30:08.968Z,5.63
2023-08-17T07:32:35.750Z,5.22
2023-08-17T07:35:02.468Z,4.95
2023-08-17T07:37:34.248Z,5.75
2023-08-17T07:40:01.200Z,6.10
2023-08-17T07:42:28.142Z,6.22
2023-08-17T07:44:54.888Z,6.00
2023-08-17T07:47:21.599Z,6.20
2023-08-17T07:49:49.815Z,5.78
2023-08-17T07:52:17.411Z,6.13
2023-08-17T07:54:46.768Z,6.50
2023-08-17T07:57:13.507Z,6.50
2023-08-17T07:59:40.326Z,6.53
2023-08-17T08:02:07.249Z,6.25
2023-08-17T08:04:33.892Z,5.90
2023-08-17T08:07:00.655Z,6.13
2023-08-17T08:09:27.370Z,6.38
2023-08-17T08:12:02.914Z,6.68
2023-08-17T08:14:30.288Z,6.07
2023-08-17T08:16:57.136Z,6.85
2023-08-17T08:19:24.467Z,6.20
2023-08-17T08:21:51.161Z,6.47
2023-08-17T08:24:26.798Z,6.75
2023-08-17T08:27:05.590Z,7.05
2023-08-17T08:29:32.249Z,7.03
2023-08-17T08:32:01.005Z,7.10
2023-08-17T08:34:27.862Z,6.82
2023-08-17T08:36:54.589Z,7.15
2023-08-17T08:39:21.266Z,7.15
2023-08-17T08:41:48.260Z,7.13
2023-08-17T08:44:14.907Z,7.47
2023-08-17T08:46:43.111Z,6.70
2023-08-17T08:49:11.369Z,6.70
2023-08-17T08:51:40.217Z,7.47
2023-08-17T08:54:09.341Z,7.25
2023-08-17T08:56:36.368Z,6.88
2023-08-17T08:59:03.851Z,6.35
2023-08-17T09:01:31.738Z,6.88
2023-08-17T09:04:00.506Z,6.53
2023-08-17T09:06:27.465Z,6.93
2023-08-17T09:08:54.424Z,6.10
2023-08-17T09:11:21.099Z,7.38
2023-08-17T09:16:20.988Z,7.85
2023-08-17T09:18:49.457Z,8.02
2023-08-17T09:21:25.848Z,7.43
2023-08-17T09:26:25.964Z,7.13
2023-08-17T09:28:53.141Z,8.00
2023-08-17T09:31:22.922Z,7.85
2023-08-17T09:33:50.750Z,7.93
2023-08-17T09:36:23.557Z,7.13
2023-08-17T09:38:53.121Z,7.72
2023-08-17T09:41:20.329Z,7.75
2023-08-17T09:43:47.669Z,7.75
2023-08-17T09:46:14.393Z,7.25
2023-08-17T09:48:41.055Z,7.95
2023-08-17T09:51:07.971Z,8.25
2023-08-17T09:53:40.444Z,7.75
2023-08-17T09:56:17.647Z,7.78
2023-08-17T09:58:44.961Z,7.30
2023-08-17T10:01:14.918Z,8.07
2023-08-17T10:03:43.851Z,8.40
2023-08-17T10:06:11.550Z,7.55
2023-08-17T10:08:54.391Z,8.02
2023-08-17T10:11:21.681Z,7.57
2023-08-17T10:14:11.751Z,6.50
2023-08-17T10:16:49.280Z,6.95
2023-08-17T10:19:37.399Z,8.15
2023-08-17T10:22:34.932Z,7.55
2023-08-17T10:25:01.821Z,7.00
2023-08-17T10:27:28.775Z,6.93
2023-08-17T10:29:55.652Z,7.60
2023-08-17T10:32:23.446Z,7.18
2023-08-17T10:34:50.838Z,7.78
2023-08-17T10:37:18.062Z,7.53
2023-08-17T10:39:49.948Z,7.30
2023-08-17T10:42:20.802Z,8.23
2023-08-17T10:44:48.856Z,7.50
2023-08-17T10:47:28.201Z,7.18
2023-08-17T10:50:11.201Z,7.30
2023-08-17T10:52:40.667Z,7.15
2023-08-17T10:55:08.772Z,7.18
2023-08-17T10:57:36.407Z,6.53
2023-08-17T11:00:23.061Z,7.80
2023-08-17T11:03:02.500Z,6.88
2023-08-17T11:05:51.318Z,6.93
2023-08-17T11:08:22.110Z,6.63
2023-08-17T11:11:10.163Z,6.40
2023-08-17T11:13:41.158Z,5.75
2023-08-17T11:16:08.872Z,5.90
2023-08-17T11:18:35.888Z,4.78
2023-08-17T11:21:09.091Z,5.43
2023-08-17T11:23:36.621Z,5.40
2023-08-17T11:26:04.135Z,5.25
2023-08-17T11:28:42.509Z,4.50
2023-08-17T11:31:13.846Z,5.32
2023-08-17T11:33:41.262Z,4.88
2023-08-17T11:36:09.213Z,18.10
2023-08-17T11:38:43.417Z,9.18
2023-08-17T11:41:10.885Z,5.80
2023-08-17T11:43:38.108Z,6.38
2023-08-17T11:46:05.102Z,6.40
2023-08-17T11:48:36.521Z,6.55
2023-08-17T11:51:03.872Z,6.57
2023-08-17T11:53:37.854Z,7.28
2023-08-17T11:56:07.996Z,6.82
2023-08-17T11:58:47.154Z,7.65
2023-08-17T12:01:18.701Z,7.80
2023-08-17T12:03:45.833Z,6.15
2023-08-17T12:06:16.046Z,5.18
2023-08-17T12:24:16.803Z,3.13
2023-08-17T14:50:30.376Z,3.03
2023-08-17T14:52:57.333Z,3.28
2023-08-17T14:55:24.314Z,3.20
2023-08-17T14:57:50.946Z,2.90
2023-08-17T15:00:18.192Z,2.95
2023-08-17T15:02:44.970Z,2.80
2023-08-17T15:05:12.199Z,2.97
2023-08-17T15:07:38.940Z,2.88
2023-08-17T15:12:40.065Z,2.95
2023-08-17T15:15:08.212Z,6.97
2023-08-17T15:17:35.133Z,2.50
2023-08-17T15:20:01.890Z,2.90
2023-08-17T15:22:28.916Z,2.65
2023-08-17T15:24:55.604Z,3.17
2023-08-17T15:27:22.371Z,2.92
2023-08-17T15:29:49.062Z,2.63
2023-08-17T15:32:15.704Z,2.55
2023-08-17T15:34:42.350Z,3.45
2023-08-17T15:37:09.219Z,2.75
2023-08-17T15:39:36.050Z,2.60
2023-08-17T15:42:02.735Z,2.50
2023-08-17T15:44:31.315Z,2.72
2023-08-17T15:47:01.463Z,2.70
2023-08-17T15:49:28.581Z,3.40
2023-08-17T15:51:55.270Z,3.13
2023-08-17T15:54:33.529Z,2.92
2023-08-17T15:57:02.298Z,3.00
2023-08-17T15:59:28.969Z,2.70
2023-08-17T16:01:55.669Z,2.90
2023-08-17T16:04:22.500Z,2.67
2023-08-17T16:06:49.228Z,3.03
2023-08-17T16:09:15.956Z,2.85
2023-08-17T16:11:42.599Z,2.90
2023-08-17T16:14:09.234Z,3.20
2023-08-17T16:16:36.126Z,3.08
2023-08-17T16:19:05.238Z,3.10
2023-08-17T16:21:32.207Z,2.88
2023-08-17T16:23:58.893Z,2.95
2023-08-17T16:26:25.547Z,2.80
2023-08-17T16:28:52.195Z,2.90
2023-08-17T16:31:19.104Z,2.95
2023-08-17T16:33:46.470Z,9.30
2023-08-17T16:36:14.886Z,3.50
2023-08-17T16:38:42.580Z,2.58
2023-08-17T16:41:13.270Z,2.80
2023-08-17T16:43:40.057Z,2.80
2023-08-17T16:46:06.777Z,2.63
2023-08-17T16:48:33.616Z,2.55
2023-08-17T16:51:00.340Z,2.60
2023-08-17T16:53:26.989Z,3.85
2023-08-17T16:55:55.738Z,3.25
2023-08-17T16:58:22.542Z,3.15
2023-08-17T17:00:49.280Z,3.08
2023-08-17T17:03:16.022Z,2.70
2023-08-17T17:05:42.898Z,3.00
2023-08-17T17:08:09.710Z,3.33
2023-08-17T17:10:36.386Z,2.58
2023-08-17T17:13:03.165Z,2.70
2023-08-17T17:15:29.897Z,2.22
2023-08-17T17:17:58.685Z,2.58
2023-08-17T17:20:25.395Z,3.03
2023-08-17T17:22:52.573Z,3.10
2023-08-17T17:25:19.358Z,2.88
2023-08-17T17:27:46.034Z,2.53
2023-08-17T17:30:13.206Z,2.58
2023-08-17T17:32:39.929Z,3.53
2023-08-17T17:35:07.205Z,3.00
2023-08-17T17:37:34.026Z,2.50
2023-08-17T17:40:00.744Z,2.97
2023-08-17T17:42:27.599Z,2.90
2023-08-17T17:44:55.696Z,3.10
2023-08-17T17:47:24.663Z,2.90
2023-08-17T17:49:51.372Z,2.80
2023-08-17T17:52:19.484Z,2.50
2023-08-17T17:54:46.425Z,3.00
2023-08-17T17:57:13.074Z,3.30
2023-08-17T17:59:39.742Z,4.00
2023-08-17T18:02:07.353Z,4.00
2023-08-17T18:04:34.200Z,7.68
2023-08-17T18:07:00.925Z,8.38
2023-08-17T18:09:28.072Z,5.18
2023-08-17T18:11:54.885Z,4.20
2023-08-17T18:14:21.605Z,4.00
2023-08-17T18:16:48.319Z,3.83
2023-08-17T18:19:15.485Z,3.10
2023-08-17T18:21:42.145Z,3.20
2023-08-17T18:24:09.218Z,4.10
2023-08-17T18:26:35.826Z,4.93
2023-08-17T18:29:04.224Z,6.55
2023-08-17T18:31:31.120Z,5.47
2023-08-17T18:33:57.829Z,4.63
2023-08-17T18:36:24.522Z,4.65
2023-08-17T18:38:51.278Z,4.97
2023-08-17T18:41:17.983Z,4.78
2023-08-17T18:43:45.100Z,4.95
2023-08-17T18:46:11.884Z,4.22
2023-08-17T18:48:38.549Z,4.75
2023-08-17T18:51:05.175Z,5.82
2023-08-17T18:53:31.817Z,5.57
2023-08-17T18:55:58.475Z,5.03
2023-08-17T18:58:27.919Z,4.75
2023-08-17T19:00:54.761Z,6.10
2023-08-17T19:03:21.640Z,5.28
2023-08-17T19:05:48.401Z,6.97
2023-08-17T19:08:17.234Z,5.80
2023-08-17T19:10:43.971Z,8.55
2023-08-17T19:13:14.942Z,7.95
2023-08-17T19:15:46.458Z,8.45
2023-08-17T19:18:13.458Z,8.80
2023-08-17T19:20:43.008Z,6.95
2023-08-17T19:23:10.130Z,6.55
2023-08-17T19:25:37.501Z,6.38
2023-08-17T19:28:04.689Z,5.80
2023-08-17T19:30:32.587Z,5.53
2023-08-17T19:33:01.246Z,6.60
2023-08-17T19:35:28.590Z,5.88
2023-08-17T19:37:56.758Z,6.05
2023-08-17T19:40:25.084Z,7.05
2023-08-17T19:42:53.253Z,7.15
2023-08-17T19:45:21.237Z,6.35
2023-08-17T19:47:49.220Z,5.97
2023-08-17T19:50:18.054Z,6.38
2023-08-17T19:52:46.005Z,5.45
2023-08-17T19:55:14.577Z,6.05
2023-08-17T19:57:43.355Z,5.70
2023-08-17T20:00:13.386Z,6.15
2023-08-17T20:02:41.497Z,5.43
2023-08-17T20:05:10.790Z,5.30
2023-08-17T20:07:38.034Z,5.63
2023-08-17T20:10:05.711Z,4.82
2023-08-17T20:12:32.369Z,5.18
2023-08-17T20:14:59.125Z,4.65
2023-08-17T20:17:26.462Z,4.65
2023-08-17T20:19:54.139Z,4.65
2023-08-17T20:22:21.305Z,4.30
2023-08-17T20:24:48.666Z,4.88
2023-08-17T20:27:15.784Z,5.10
2023-08-17T20:29:43.213Z,5.25
2023-08-17T20:32:10.409Z,4.95
2023-08-17T20:34:38.120Z,4.97
2023-08-17T20:37:05.405Z,5.05
2023-08-17T20:39:32.470Z,4.68
2023-08-17T20:42:07.942Z,4.90
2023-08-17T20:44:34.857Z,4.20
2023-08-17T20:47:01.569Z,5.57
2023-08-17T20:49:28.719Z,5.25
2023-08-17T20:51:55.377Z,4.60
2023-08-17T20:54:22.090Z,5.60
2023-08-17T20:56:49.709Z,4.97
2023-08-17T20:59:16.782Z,4.93
2023-08-17T21:01:43.562Z,4.78
2023-08-17T21:04:10.420Z,4.22
2023-08-17T21:06:42.284Z,4.38
2023-08-17T21:09:10.037Z,6.45
2023-08-17T21:11:40.243Z,5.45
2023-08-17T21:14:07.668Z,4.70
2023-08-17T21:16:34.516Z,4.47
2023-08-17T21:19:01.576Z,5.88
2023-08-17T21:21:29.158Z,5.57
2023-08-17T21:23:56.830Z,5.03
2023-08-17T21:26:24.312Z,4.75
2023-08-17T21:28:51.763Z,5.07
2023-08-17T21:31:18.678Z,4.90
2023-08-17T21:33:45.383Z,5.40
2023-08-17T21:36:12.037Z,5.35
2023-08-17T21:38:38.740Z,5.95
2023-08-17T21:41:05.492Z,5.20
2023-08-17T21:43:32.431Z,4.90
2023-08-17T21:45:59.937Z,5.35
2023-08-17T21:48:27.053Z,5.03
2023-08-17T21:50:53.799Z,4.88
2023-08-17T21:53:20.823Z,5.80
2023-08-17T21:55:51.473Z,4.30
2023-08-17T21:58:21.623Z,4.47
2023-08-17T22:00:49.753Z,4.60
2023-08-17T22:03:16.872Z,5.05
2023-08-17T22:05:46.489Z,5.45
2023-08-17T22:08:14.412Z,6.00
2023-08-17T22:10:41.613Z,5.32
2023-08-17T22:13:08.550Z,4.93
2023-08-17T22:15:36.072Z,4.72
2023-08-17T22:18:02.972Z,5.18
2023-08-17T22:20:29.813Z,5.47
2023-08-17T22:22:56.513Z,5.75
2023-08-17T22:25:23.439Z,4.68
2023-08-17T22:27:50.184Z,3.92
2023-08-17T22:30:16.904Z,4.72
2023-08-17T22:32:43.586Z,4.55
2023-08-17T22:35:11.648Z,4.47
2023-08-17T22:37:38.736Z,5.00
2023-08-17T22:40:07.482Z,5.57
2023-08-17T22:42:34.285Z,4.93
2023-08-17T22:45:00.977Z,5.00
2023-08-17T22:47:28.177Z,4.85
2023-08-17T22:49:55.781Z,4.30
2023-08-17T22:52:22.547Z,6.18
2023-08-17T22:54:49.737Z,5.55
2023-08-17T22:57:16.456Z,5.20
2023-08-17T22:59:43.187Z,5.28
2023-08-17T23:02:09.936Z,4.80
2023-08-17T23:04:36.888Z,5.70
2023-08-17T23:07:03.896Z,5.38
2023-08-17T23:09:30.600Z,5.07
2023-08-17T23:11:57.430Z,4.65
2023-08-17T23:14:24.434Z,4.55
2023-08-17T23:16:51.286Z,4.32
2023-08-17T23:19:18.104Z,4.90
2023-08-17T23:21:44.918Z,4.90
2023-08-17T23:24:11.551Z,4.53
2023-08-17T23:26:38.219Z,5.40
2023-08-17T23:29:05.182Z,4.90
2023-08-17T23:31:32.593Z,5.18
2023-08-17T23:33:59.367Z,4.57
2023-08-17T23:36:26.935Z,4.40
2023-08-17T23:38:53.702Z,4.88
2023-08-17T23:41:20.387Z,4.57
2023-08-17T23:43:47.038Z,5.00
2023-08-17T23:46:13.801Z,5.05
2023-08-17T23:48:40.593Z,5.15
2023-08-17T23:51:07.256Z,5.10
2023-08-17T23:53:33.923Z,5.00
2023-08-17T23:56:00.587Z,4.82
2023-08-17T23:58:27.267Z,4.90
